»·PEaware :: QXE4366 KRNO-KBOI

QXE4366 :: KRNO-KBOI

FLIGHT INFORMATION

Flight Status: Arrived
Operator:
Horizon Air
More flights by this operator :: More flights under this callsign
Pilot: Benjamin K. (16300)
Aircraft: DEHAVILLAND DASH 8 400
(DH8D)
More flights by this aircraft type
Origin: KRNO Reno/Tahoe Intl
United States
Destination: KBOI Boise Air Terminal/Gowen
United States
More flights between these airports :: More routes between these airports
Route: +ZEFFR6 BLKJK PRNCS SADYL3
File this flight plan on PilotEdge
Remarks:
Altitude:
(Current/Filed)
25,000ft
Speed:
(Current/Filed)
350kts
Departed: 08-Mar-18 05:24 PM
Arrived: 08-Mar-18 06:29 PM
Distance/Time
Traveled:
291nm/1:04
Distance/Time
To Go:
Arrived

Flight Plot

Page will automatically refresh every two minutes.

Flight plan parsing failed; only flown route is shown


Map Options




Map Legend


Flown Route
Filed Route
Departure Airport
Arrival Airport
Navaid (VOR, NDB)
Fix

Horizontal Profiles

Position Reports

Time Latitude Longitude Heading Altitude Ground
Speed
08-Mar-18 17:05 39.505277 -119.773205 180 4422ft 0kts
08-Mar-18 17:06 39.505277 -119.773205 180 4422ft 0kts
08-Mar-18 17:07 39.505277 -119.773205 180 4422ft 0kts
08-Mar-18 17:08 39.505277 -119.773205 180 4422ft 0kts
08-Mar-18 17:09 39.505277 -119.773205 180 4422ft 0kts
08-Mar-18 17:10 39.505277 -119.773205 180 4422ft 0kts
08-Mar-18 17:11 39.505277 -119.773205 180 4422ft 0kts
08-Mar-18 17:12 39.505277 -119.773205 180 4422ft 0kts
08-Mar-18 17:13 39.505277 -119.773205 180 4422ft 0kts
08-Mar-18 17:14 39.505277 -119.773205 180 4422ft 0kts
08-Mar-18 17:15 39.505277 -119.773205 180 4422ft 0kts
08-Mar-18 17:16 39.505277 -119.773205 180 4422ft 0kts
08-Mar-18 17:17 39.505277 -119.773205 180 4422ft 0kts
08-Mar-18 17:18 39.505277 -119.773205 180 4422ft 0kts
08-Mar-18 17:19 39.505277 -119.773205 180 4422ft 0kts
08-Mar-18 17:20 39.505277 -119.773205 180 4422ft 0kts
08-Mar-18 17:21 39.505277 -119.773205 180 4422ft 0kts
08-Mar-18 17:22 39.505507 -119.773200 180 4422ft 2kts
08-Mar-18 17:23 39.505552 -119.773199 181 4422ft 0kts
08-Mar-18 17:24 39.505552 -119.773199 181 4422ft 0kts
08-Mar-18 17:25 39.505552 -119.773199 181 4422ft 0kts
08-Mar-18 17:26 39.505528 -119.773200 181 4422ft 0kts
08-Mar-18 17:27 39.505693 -119.772655 54 4422ft 3kts
08-Mar-18 17:28 39.508083 -119.771483 0 4422ft 22kts
08-Mar-18 17:29 39.513246 -119.771476 0 4422ft 6kts
08-Mar-18 17:30 39.513693 -119.769474 114 4422ft 11kts
08-Mar-18 17:31 39.502607 -119.769239 180 4423ft 130kts
08-Mar-18 17:32 39.456326 -119.765266 177 6019ft 189kts
08-Mar-18 17:33 39.403531 -119.764842 189 8807ft 187kts
08-Mar-18 17:34 39.351278 -119.768421 187 11323ft 195kts
08-Mar-18 17:35 39.303910 -119.725825 130 13488ft 239kts
08-Mar-18 17:36 39.285768 -119.642507 67 15359ft 263kts
08-Mar-18 17:37 39.323873 -119.562758 48 16897ft 269kts
08-Mar-18 17:38 39.370741 -119.485971 34 18370ft 270kts
08-Mar-18 17:39 39.422687 -119.425855 33 19553ft 278kts
08-Mar-18 17:40 39.477420 -119.360694 35 20663ft 284kts
08-Mar-18 17:41 39.539039 -119.312082 8 21666ft 272kts
08-Mar-18 17:42 39.610328 -119.278224 9 22644ft 278kts
08-Mar-18 17:43 39.683932 -119.241904 9 23550ft 283kts
08-Mar-18 17:44 39.758349 -119.204950 9 24378ft 287kts
08-Mar-18 17:45 39.834037 -119.167350 9 25000ft 297kts
08-Mar-18 17:46 39.914781 -119.127674 10 25060ft 321kts
08-Mar-18 17:47 40.000589 -119.084690 10 25063ft 339kts
08-Mar-18 17:48 40.090814 -119.039437 11 25064ft 352kts
08-Mar-18 17:49 40.183667 -118.992871 11 25065ft 360kts
08-Mar-18 17:50 40.278058 -118.945233 11 25065ft 366kts
08-Mar-18 17:51 40.374104 -118.896825 11 25064ft 369kts
08-Mar-18 17:52 40.469371 -118.848588 11 25061ft 371kts
08-Mar-18 17:53 40.565651 -118.799662 11 25060ft 372kts
08-Mar-18 17:54 40.662748 -118.750213 11 25058ft 373kts
08-Mar-18 17:55 40.759812 -118.700606 11 25055ft 373kts
08-Mar-18 17:56 40.857273 -118.650550 11 25050ft 374kts
08-Mar-18 17:57 40.954465 -118.600698 11 25041ft 374kts
08-Mar-18 17:58 41.051458 -118.550642 11 25040ft 374kts
08-Mar-18 17:59 41.148570 -118.500361 11 25042ft 374kts
08-Mar-18 18:00 41.245562 -118.450014 11 25041ft 375kts
08-Mar-18 18:01 41.342224 -118.399589 11 25039ft 375kts
08-Mar-18 18:02 41.439607 -118.348801 11 25037ft 375kts
08-Mar-18 18:03 41.536565 -118.297924 11 25030ft 377kts
08-Mar-18 18:04 41.634184 -118.246630 11 25022ft 378kts
08-Mar-18 18:05 41.729922 -118.196141 11 25019ft 378kts
08-Mar-18 18:06 41.825650 -118.145430 11 25014ft 378kts
08-Mar-18 18:07 41.907750 -118.101875 11 25015ft 378kts
08-Mar-18 18:08 41.990637 -118.057749 11 25012ft 378kts
08-Mar-18 18:09 42.094857 -118.002077 11 25008ft 379kts
08-Mar-18 18:10 42.185629 -117.953442 11 25005ft 379kts
08-Mar-18 18:11 42.264039 -117.911474 11 24542ft 386kts
08-Mar-18 18:12 42.351754 -117.864290 12 24039ft 383kts
08-Mar-18 18:13 42.444411 -117.809504 26 23997ft 390kts
08-Mar-18 18:14 42.512287 -117.699681 48 24000ft 402kts
08-Mar-18 18:15 42.587275 -117.575668 43 23999ft 399kts
08-Mar-18 18:16 42.657451 -117.460020 45 23998ft 400kts
08-Mar-18 18:17 42.727103 -117.343193 46 23000ft 406kts
08-Mar-18 18:18 42.797711 -117.225049 47 21204ft 396kts
08-Mar-18 18:19 42.869096 -117.103203 47 19363ft 372kts
08-Mar-18 18:20 42.930727 -116.998943 47 17798ft 352kts
08-Mar-18 18:21 42.985084 -116.905431 46 16410ft 358kts
08-Mar-18 18:22 43.044299 -116.804430 47 14873ft 364kts
08-Mar-18 18:23 43.099156 -116.710960 47 13459ft 350kts
08-Mar-18 18:24 43.147671 -116.628538 48 12241ft 316kts
08-Mar-18 18:25 43.206716 -116.559410 13 11011ft 288kts
08-Mar-18 18:26 43.275559 -116.532686 10 9840ft 283kts
08-Mar-18 18:27 43.349674 -116.503526 13 8583ft 284kts
08-Mar-18 18:28 43.422516 -116.473809 14 7054ft 259kts
08-Mar-18 18:29 43.483908 -116.448641 20 6014ft 223kts
08-Mar-18 18:30 43.530898 -116.428090 14 5934ft 162kts
08-Mar-18 18:31 43.571237 -116.410716 18 5150ft 167kts
08-Mar-18 18:32 43.604896 -116.377509 46 4594ft 159kts
08-Mar-18 18:33 43.608774 -116.330853 132 3880ft 146kts
08-Mar-18 18:34 43.587812 -116.288496 113 3529ft 128kts
08-Mar-18 18:35 43.572867 -116.244468 116 3007ft 125kts
08-Mar-18 18:36 43.565863 -116.223407 36 2842ft 9kts
08-Mar-18 18:37 43.567493 -116.222816 23 2841ft 0kts

Navigation Log

Ident Type
Flight plan parsing failed, navigation log unavailable